Terminal Aerodrome Forecast
Issued by NWS

Home | Current Version | Previous Version | Text Only | Print | Product List | Glossary On
Versions: 1 2 3 4 5 6 7 8 9 10 11 12
886
FTUS45 KPIH 172320
TAFSUN
TAF
KSUN 172320Z 1800/1906 VRB05KT P6SM OVC120
     FM180300 32009KT P6SM BKN120
     FM181900 VRB05KT P6SM VCSH BKN070
      AMD LTD TO CLD VIS AND WIND 1806/1814=

USA.gov is the U.S. government's official web portal to all federal, state and local government web resources and services.